Nyk Orpheus — 7JDN — position and weather

sailwx.info

Track history (hours):
 
Tides and Currents Weather Stations Pressure Air Temp Water Temp Dewpoint Dewpoint Depression Visibility Wind Speed Wind Dir Waves Ship Positions

Nyk Orpheus

Last reported at 2018-Feb-14 07:39 UTC. Time now 2018-Feb-25 08:21 UTC.
Position N 01°22' E 103°15'.
Warning: this ship's position is 11 days out of date.

Length 336 m; draft 13.2 m.

Type: Ship (hazmat cat A). MMSI: 432657000.

Date/timePositionNaut miles runAvg speedWind from/ knotsBaromVisibWave heightAir tempDewpointWater temp
2018-Feb-14 07:39N 01°22' E 103°15'517.6
2018-Feb-14 07:24N 01°19' E 103°18'717.0
2018-Feb-14 06:58N 01°15' E 103°24'816.5
2018-Feb-14 06:30N 01°12' E 103°31'611.7
2018-Feb-14 05:59N 01°12' E 103°37'3 7.0
2018-Feb-14 05:30N 01°13' E 103°40'5 9.1
2018-Feb-14 05:00N 01°16' E 103°44'3 5.5
2018-Feb-14 04:30N 01°16' E 103°47'0 0.5
2018-Feb-14 03:58N 01°16' E 103°47'0 0.0
2018-Feb-14 03:28N 01°16' E 103°47'0 0.0
2018-Feb-14 02:58N 01°16' E 103°47'0 0.0
2018-Feb-14 02:28N 01°16' E 103°47'0 0.0
2018-Feb-14 01:58N 01°16' E 103°47'0 0.0
2018-Feb-14 01:25N 01°16' E 103°47'0 0.0
2018-Feb-14 00:58N 01°16' E 103°47'0 0.0
2018-Feb-14 00:28N 01°16' E 103°47'0 0.0
2018-Feb-13 23:58N 01°16' E 103°47'0 0.0
2018-Feb-13 23:28N 01°16' E 103°47'0 0.0
2018-Feb-13 22:58N 01°16' E 103°47'0 0.0
2018-Feb-13 22:28N 01°16' E 103°47'0 0.0
2018-Feb-13 21:58N 01°16' E 103°47'0 0.0
2018-Feb-13 21:25N 01°16' E 103°47'0 0.0
2018-Feb-13 20:58N 01°16' E 103°47'0 0.0
2018-Feb-13 20:28N 01°16' E 103°47'0 0.0
2018-Feb-13 19:58N 01°16' E 103°47'0 0.0
2018-Feb-13 19:25N 01°16' E 103°47'0 0.0
2018-Feb-13 18:58N 01°16' E 103°47'0 0.0
2018-Feb-13 18:28N 01°16' E 103°47'0 0.0
2018-Feb-13 17:58N 01°16' E 103°47'0 0.0
2018-Feb-13 17:25N 01°16' E 103°47'0 0.0
2018-Feb-13 16:55N 01°16' E 103°47'0 0.0
2018-Feb-13 16:25N 01°16' E 103°47'0 0.0
2018-Feb-13 15:58N 01°16' E 103°47'0 0.0
2018-Feb-13 15:25N 01°16' E 103°47'0 0.0
2018-Feb-13 14:55N 01°16' E 103°47'0 0.0
2018-Feb-13 14:28N 01°16' E 103°47'0 0.0
2018-Feb-13 13:55N 01°16' E 103°47'0 0.0
2018-Feb-13 13:28N 01°16' E 103°47'0 0.0
2018-Feb-13 12:55N 01°16' E 103°47'0 0.0
2018-Feb-13 12:25N 01°16' E 103°47'0 0.0
2018-Feb-13 11:58N 01°16' E 103°47'0 0.0
2018-Feb-13 11:28N 01°16' E 103°47'0 0.0
2018-Feb-13 10:55N 01°16' E 103°47'0 0.0
2018-Feb-13 10:25N 01°16' E 103°47'0 0.0
2018-Feb-13 09:58N 01°16' E 103°47'0 0.0
2018-Feb-13 09:28N 01°16' E 103°47'0 0.0
2018-Feb-13 08:58N 01°16' E 103°47'0 0.0
2018-Feb-13 08:28N 01°16' E 103°47'0 0.0
2018-Feb-13 07:55N 01°16' E 103°47'0 0.0
2018-Feb-13 07:25N 01°16' E 103°47'0 0.0
2018-Feb-13 06:58N 01°16' E 103°47'0 0.0
2018-Feb-13 06:28N 01°16' E 103°47'0 0.0
2018-Feb-13 05:58N 01°16' E 103°47'0 0.0
2018-Feb-13 05:25N 01°16' E 103°47'0 0.0
2018-Feb-13 04:58N 01°16' E 103°47'0 0.0
2018-Feb-13 04:25N 01°16' E 103°47'0 0.0
2018-Feb-13 03:58N 01°16' E 103°47'0 0.0
2018-Feb-13 03:28N 01°16' E 103°47'0 0.0
2018-Feb-13 02:55N 01°16' E 103°47'0 0.0
2018-Feb-13 02:28N 01°16' E 103°47'0 0.0
2018-Feb-13 01:58N 01°16' E 103°47'0 0.0
2018-Feb-13 01:28N 01°16' E 103°47'0 0.0
2018-Feb-13 00:58N 01°16' E 103°47'0 0.0
2018-Feb-13 00:22N 01°16' E 103°47'0 0.0
2018-Feb-12 23:58N 01°16' E 103°47'0 0.6
2018-Feb-12 23:30N 01°16' E 103°47'2 4.6
2018-Feb-12 23:00N 01°14' E 103°47'611.4
2018-Feb-12 22:30N 01°13' E 103°53'4 7.0
2018-Feb-12 21:59N 01°14' E 103°56'511.0
2018-Feb-12 21:30N 01°16' E 104°01'5 9.4
2018-Feb-12 20:56N 01°16' E 104°07'1110.1
2018-Feb-12 19:52N 01°18' E 104°17'6 9.6
2018-Feb-12 19:15N 01°22' E 104°22'  
2018-Feb-07 04:16N 34°04' E 138°25'1619.5
2018-Feb-07 03:26N 34°14' E 138°40'1619.4
2018-Feb-07 02:38N 34°25' E 138°54'219.6
2018-Feb-07 02:30N 34°27' E 138°56'1019.2
2018-Feb-07 01:59N 34°34' E 139°04'1120.0
2018-Feb-07 01:26N 34°44' E 139°10'1120.0
2018-Feb-07 00:53N 34°52' E 139°20'819.8
2018-Feb-07 00:30N 34°56' E 139°27'1019.1
2018-Feb-07 00:00N 35°02' E 139°36'918.7
2018-Feb-06 23:30N 35°08' E 139°45'611.9
2018-Feb-06 23:00N 35°14' E 139°46'612.9
2018-Feb-06 22:30N 35°20' E 139°43'1313.2
2018-Feb-06 21:30N 35°31' E 139°51'6 6.2
2018-Feb-06 20:28N 35°36' E 139°46'0 0.0
2018-Feb-06 19:55N 35°36' E 139°46'0 0.0
2018-Feb-06 19:25N 35°36' E 139°46'0 0.0
2018-Feb-06 18:58N 35°36' E 139°46'0 0.0
2018-Feb-06 18:28N 35°36' E 139°46'0 0.0
2018-Feb-06 17:55N 35°36' E 139°46'0 0.0
2018-Feb-06 17:28N 35°36' E 139°46'0 0.0
2018-Feb-06 16:04N 35°36' E 139°46'0 0.1
2018-Feb-06 15:58N 35°36' E 139°46'0 0.0
2018-Feb-06 14:28N 35°36' E 139°46'0 0.0
2018-Feb-06 13:49N 35°36' E 139°46'0 0.0
2018-Feb-06 12:55N 35°36' E 139°46'0 0.0
2018-Feb-06 12:28N 35°36' E 139°46'0 0.0
2018-Feb-06 11:13N 35°36' E 139°46'0 0.0
2018-Feb-06 10:49N 35°36' E 139°46'0 0.0
2018-Feb-06 10:22N 35°36' E 139°46'0 0.0
2018-Feb-06 09:43N 35°36' E 139°46'0 0.0
2018-Feb-06 09:28N 35°36' E 139°46'0 0.0
2018-Feb-06 08:49N 35°36' E 139°46'0 0.0
2018-Feb-06 08:22N 35°36' E 139°46'0 0.0
2018-Feb-06 07:52N 35°36' E 139°46'0 0.0
2018-Feb-06 07:19N 35°36' E 139°46'0 0.0
2018-Feb-06 06:58N 35°36' E 139°46'0 0.0
2018-Feb-06 06:22N 35°36' E 139°46'0 0.0
2018-Feb-06 05:37N 35°36' E 139°46'0 0.0
2018-Feb-06 05:25N 35°36' E 139°46'0 0.0
2018-Feb-06 04:58N 35°36' E 139°46'0 0.0
2018-Feb-06 03:04N 35°36' E 139°46'0 0.0
2018-Feb-06 02:37N 35°36' E 139°46'0 0.0
2018-Feb-06 02:25N 35°36' E 139°46'0 0.0
2018-Feb-06 01:37N 35°36' E 139°46'0 0.0
2018-Feb-06 01:25N 35°36' E 139°46'0 0.0
2018-Feb-06 00:01N 35°36' E 139°46'0 0.0
2018-Feb-05 23:43N 35°36' E 139°46'0 0.0
2018-Feb-05 23:28N 35°36' E 139°46'0 0.0
2018-Feb-05 22:52N 35°36' E 139°46'0 0.0
2018-Feb-05 22:22N 35°36' E 139°46'0 0.0
2018-Feb-05 21:58N 35°36' E 139°46'0 0.0
2018-Feb-05 21:16N 35°36' E 139°46'0 0.0
2018-Feb-05 20:52N 35°36' E 139°46'0 0.0
2018-Feb-05 20:22N 35°36' E 139°46'0 0.0
2018-Feb-05 19:58N 35°36' E 139°46'0 0.0
2018-Feb-05 19:28N 35°36' E 139°46'0 0.0
2018-Feb-05 18:58N 35°36' E 139°46'0 0.0
2018-Feb-05 18:28N 35°36' E 139°46'0 0.0
2018-Feb-05 17:49N 35°36' E 139°46'0 0.0
2018-Feb-05 17:25N 35°36' E 139°46'0 0.0
2018-Feb-05 17:00N 35°36' E 139°46'1 2.8
2018-Feb-05 16:30N 35°35' E 139°48'13 9.0
2018-Feb-05 15:00N 35°22' E 139°45'611.1
2018-Feb-05 14:30N 35°16' E 139°46'611.8
2018-Feb-05 14:00N 35°10' E 139°47'9 8.6
2018-Feb-05 13:00N 35°02' E 139°43'1515.0
2018-Feb-05 12:00N 34°53' E 139°28'918.6
2018-Feb-05 11:30N 34°48' E 139°18'1018.8
2018-Feb-05 10:58N 34°40' E 139°11'1120.9
2018-Feb-05 10:27N 34°32' E 139°03'919.9
2018-Feb-05 09:59N 34°31' E 138°51'918.1
2018-Feb-05 09:29N 34°34' E 138°41'919.5
2018-Feb-05 09:00N 34°43' E 138°40'1020.2
2018-Feb-05 08:30N 34°53' E 138°38'918.2
2018-Feb-05 08:00N 35°01' E 138°33'2 3.9
2018-Feb-05 07:30N 35°02' E 138°31'1 1.1
2018-Feb-05 07:00N 35°02' E 138°31'0 0.0
2018-Feb-05 06:30N 35°02' E 138°31'0 0.0
2018-Feb-05 05:30N 35°02' E 138°31'0 0.0
2018-Feb-05 05:00N 35°02' E 138°31'0 0.0
2018-Feb-05 04:30N 35°02' E 138°31'0 0.0
2018-Feb-05 04:00N 35°02' E 138°31'0 0.0
2018-Feb-05 03:30N 35°02' E 138°31'0 0.0
2018-Feb-05 03:00N 35°02' E 138°31'0 0.0
2018-Feb-05 02:30N 35°02' E 138°31'0 0.0
2018-Feb-05 02:00N 35°02' E 138°31'0 0.0
2018-Feb-05 01:30N 35°02' E 138°31'0 0.0
2018-Feb-05 01:00N 35°02' E 138°31'0 0.0
2018-Feb-05 00:30N 35°02' E 138°31'0 0.0
2018-Feb-05 00:00N 35°02' E 138°31'0 0.0
2018-Feb-04 23:30N 35°02' E 138°31'0 0.0
2018-Feb-04 23:00N 35°02' E 138°31'0 0.0
2018-Feb-04 22:30N 35°02' E 138°31'0 0.0
2018-Feb-04 22:00N 35°02' E 138°31'0 0.0
2018-Feb-04 21:30N 35°02' E 138°31'0 0.0
2018-Feb-04 21:00N 35°02' E 138°31'0 0.0
2018-Feb-04 20:00N 35°02' E 138°31'0 0.0
2018-Feb-04 19:30N 35°02' E 138°31'0 0.0
2018-Feb-04 19:00N 35°02' E 138°31'0 0.0
2018-Feb-04 18:30N 35°02' E 138°31'0 0.0
2018-Feb-04 18:00N 35°02' E 138°31'0 0.0
2018-Feb-04 17:30N 35°02' E 138°31'1 0.6
2018-Feb-04 15:30N 35°02' E 138°32'3 5.2
2018-Feb-04 15:00N 34°59' E 138°33'713.6
2018-Feb-04 14:31N 34°53' E 138°31'815.1
2018-Feb-04 14:01N 34°45' E 138°29'917.2
2018-Feb-04 13:30N 34°37' E 138°27'815.2
2018-Feb-04 13:00N 34°30' E 138°24'714.5
2018-Feb-04 12:30N 34°27' E 138°15'1018.7
2018-Feb-04 11:59N 34°27' E 138°04'1019.2
2018-Feb-04 11:29N 34°27' E 137°52'4616.8
2018-Feb-04 08:43N 34°36' E 136°57'417.1
2018-Feb-04 08:27N 34°38' E 136°52'919.3
2018-Feb-04 08:00N 34°46' E 136°47'  
Track history (hours):
 
Tides and Currents Weather Stations Pressure Air Temp Water Temp Dewpoint Dewpoint Depression Visibility Wind Speed Wind Dir Waves Ship Positions

Nyk Orpheus

Last reported at 2018-Feb-14 07:39 UTC. Time now 2018-Feb-25 08:21 UTC.
Position N 01°22' E 103°15'.
Warning: this ship's position is 11 days out of date.

Length 336 m; draft 13.2 m.

Type: Ship (hazmat cat A). MMSI: 432657000.

Date/timePositionNaut miles runAvg speedWind from/ knotsBaromVisibWave heightAir tempDewpointWater temp
2018-Feb-14 07:39N 01°22' E 103°15'517.6
2018-Feb-14 07:24N 01°19' E 103°18'717.0
2018-Feb-14 06:58N 01°15' E 103°24'816.5
2018-Feb-14 06:30N 01°12' E 103°31'611.7
2018-Feb-14 05:59N 01°12' E 103°37'3 7.0
2018-Feb-14 05:30N 01°13' E 103°40'5 9.1
2018-Feb-14 05:00N 01°16' E 103°44'3 5.5
2018-Feb-14 04:30N 01°16' E 103°47'0 0.5
2018-Feb-14 03:58N 01°16' E 103°47'0 0.0
2018-Feb-14 03:28N 01°16' E 103°47'0 0.0
2018-Feb-14 02:58N 01°16' E 103°47'0 0.0
2018-Feb-14 02:28N 01°16' E 103°47'0 0.0
2018-Feb-14 01:58N 01°16' E 103°47'0 0.0
2018-Feb-14 01:25N 01°16' E 103°47'0 0.0
2018-Feb-14 00:58N 01°16' E 103°47'0 0.0
2018-Feb-14 00:28N 01°16' E 103°47'0 0.0
2018-Feb-13 23:58N 01°16' E 103°47'0 0.0
2018-Feb-13 23:28N 01°16' E 103°47'0 0.0
2018-Feb-13 22:58N 01°16' E 103°47'0 0.0
2018-Feb-13 22:28N 01°16' E 103°47'0 0.0
2018-Feb-13 21:58N 01°16' E 103°47'0 0.0
2018-Feb-13 21:25N 01°16' E 103°47'0 0.0
2018-Feb-13 20:58N 01°16' E 103°47'0 0.0
2018-Feb-13 20:28N 01°16' E 103°47'0 0.0
2018-Feb-13 19:58N 01°16' E 103°47'0 0.0
2018-Feb-13 19:25N 01°16' E 103°47'0 0.0
2018-Feb-13 18:58N 01°16' E 103°47'0 0.0
2018-Feb-13 18:28N 01°16' E 103°47'0 0.0
2018-Feb-13 17:58N 01°16' E 103°47'0 0.0
2018-Feb-13 17:25N 01°16' E 103°47'0 0.0
2018-Feb-13 16:55N 01°16' E 103°47'0 0.0
2018-Feb-13 16:25N 01°16' E 103°47'0 0.0
2018-Feb-13 15:58N 01°16' E 103°47'0 0.0
2018-Feb-13 15:25N 01°16' E 103°47'0 0.0
2018-Feb-13 14:55N 01°16' E 103°47'0 0.0
2018-Feb-13 14:28N 01°16' E 103°47'0 0.0
2018-Feb-13 13:55N 01°16' E 103°47'0 0.0
2018-Feb-13 13:28N 01°16' E 103°47'0 0.0
2018-Feb-13 12:55N 01°16' E 103°47'0 0.0
2018-Feb-13 12:25N 01°16' E 103°47'0 0.0
2018-Feb-13 11:58N 01°16' E 103°47'0 0.0
2018-Feb-13 11:28N 01°16' E 103°47'0 0.0
2018-Feb-13 10:55N 01°16' E 103°47'0 0.0
2018-Feb-13 10:25N 01°16' E 103°47'0 0.0
2018-Feb-13 09:58N 01°16' E 103°47'0 0.0
2018-Feb-13 09:28N 01°16' E 103°47'0 0.0
2018-Feb-13 08:58N 01°16' E 103°47'0 0.0
2018-Feb-13 08:28N 01°16' E 103°47'0 0.0
2018-Feb-13 07:55N 01°16' E 103°47'0 0.0
2018-Feb-13 07:25N 01°16' E 103°47'0 0.0
2018-Feb-13 06:58N 01°16' E 103°47'0 0.0
2018-Feb-13 06:28N 01°16' E 103°47'0 0.0
2018-Feb-13 05:58N 01°16' E 103°47'0 0.0
2018-Feb-13 05:25N 01°16' E 103°47'0 0.0
2018-Feb-13 04:58N 01°16' E 103°47'0 0.0
2018-Feb-13 04:25N 01°16' E 103°47'0 0.0
2018-Feb-13 03:58N 01°16' E 103°47'0 0.0
2018-Feb-13 03:28N 01°16' E 103°47'0 0.0
2018-Feb-13 02:55N 01°16' E 103°47'0 0.0
2018-Feb-13 02:28N 01°16' E 103°47'0 0.0
2018-Feb-13 01:58N 01°16' E 103°47'0 0.0
2018-Feb-13 01:28N 01°16' E 103°47'0 0.0
2018-Feb-13 00:58N 01°16' E 103°47'0 0.0
2018-Feb-13 00:22N 01°16' E 103°47'0 0.0
2018-Feb-12 23:58N 01°16' E 103°47'0 0.6
2018-Feb-12 23:30N 01°16' E 103°47'2 4.6
2018-Feb-12 23:00N 01°14' E 103°47'611.4
2018-Feb-12 22:30N 01°13' E 103°53'4 7.0
2018-Feb-12 21:59N 01°14' E 103°56'511.0
2018-Feb-12 21:30N 01°16' E 104°01'5 9.4
2018-Feb-12 20:56N 01°16' E 104°07'1110.1
2018-Feb-12 19:52N 01°18' E 104°17'6 9.6
2018-Feb-12 19:15N 01°22' E 104°22'  
2018-Feb-07 04:16N 34°04' E 138°25'1619.5
2018-Feb-07 03:26N 34°14' E 138°40'1619.4
2018-Feb-07 02:38N 34°25' E 138°54'219.6
2018-Feb-07 02:30N 34°27' E 138°56'1019.2
2018-Feb-07 01:59N 34°34' E 139°04'1120.0
2018-Feb-07 01:26N 34°44' E 139°10'1120.0
2018-Feb-07 00:53N 34°52' E 139°20'819.8
2018-Feb-07 00:30N 34°56' E 139°27'1019.1
2018-Feb-07 00:00N 35°02' E 139°36'918.7
2018-Feb-06 23:30N 35°08' E 139°45'611.9
2018-Feb-06 23:00N 35°14' E 139°46'612.9
2018-Feb-06 22:30N 35°20' E 139°43'1313.2
2018-Feb-06 21:30N 35°31' E 139°51'6 6.2
2018-Feb-06 20:28N 35°36' E 139°46'0 0.0
2018-Feb-06 19:55N 35°36' E 139°46'0 0.0
2018-Feb-06 19:25N 35°36' E 139°46'0 0.0
2018-Feb-06 18:58N 35°36' E 139°46'0 0.0
2018-Feb-06 18:28N 35°36' E 139°46'0 0.0
2018-Feb-06 17:55N 35°36' E 139°46'0 0.0
2018-Feb-06 17:28N 35°36' E 139°46'0 0.0
2018-Feb-06 16:04N 35°36' E 139°46'0 0.1
2018-Feb-06 15:58N 35°36' E 139°46'0 0.0
2018-Feb-06 14:28N 35°36' E 139°46'0 0.0
2018-Feb-06 13:49N 35°36' E 139°46'0 0.0
2018-Feb-06 12:55N 35°36' E 139°46'0 0.0
2018-Feb-06 12:28N 35°36' E 139°46'0 0.0
2018-Feb-06 11:13N 35°36' E 139°46'0 0.0
2018-Feb-06 10:49N 35°36' E 139°46'0 0.0
2018-Feb-06 10:22N 35°36' E 139°46'0 0.0
2018-Feb-06 09:43N 35°36' E 139°46'0 0.0
2018-Feb-06 09:28N 35°36' E 139°46'0 0.0
2018-Feb-06 08:49N 35°36' E 139°46'0 0.0
2018-Feb-06 08:22N 35°36' E 139°46'0 0.0
2018-Feb-06 07:52N 35°36' E 139°46'0 0.0
2018-Feb-06 07:19N 35°36' E 139°46'0 0.0
2018-Feb-06 06:58N 35°36' E 139°46'0 0.0
2018-Feb-06 06:22N 35°36' E 139°46'0 0.0
2018-Feb-06 05:37N 35°36' E 139°46'0 0.0
2018-Feb-06 05:25N 35°36' E 139°46'0 0.0
2018-Feb-06 04:58N 35°36' E 139°46'0 0.0
2018-Feb-06 03:04N 35°36' E 139°46'0 0.0
2018-Feb-06 02:37N 35°36' E 139°46'0 0.0
2018-Feb-06 02:25N 35°36' E 139°46'0 0.0
2018-Feb-06 01:37N 35°36' E 139°46'0 0.0
2018-Feb-06 01:25N 35°36' E 139°46'0 0.0
2018-Feb-06 00:01N 35°36' E 139°46'0 0.0
2018-Feb-05 23:43N 35°36' E 139°46'0 0.0
2018-Feb-05 23:28N 35°36' E 139°46'0 0.0
2018-Feb-05 22:52N 35°36' E 139°46'0 0.0
2018-Feb-05 22:22N 35°36' E 139°46'0 0.0
2018-Feb-05 21:58N 35°36' E 139°46'0 0.0
2018-Feb-05 21:16N 35°36' E 139°46'0 0.0
2018-Feb-05 20:52N 35°36' E 139°46'0 0.0
2018-Feb-05 20:22N 35°36' E 139°46'0 0.0
2018-Feb-05 19:58N 35°36' E 139°46'0 0.0
2018-Feb-05 19:28N 35°36' E 139°46'0 0.0
2018-Feb-05 18:58N 35°36' E 139°46'0 0.0
2018-Feb-05 18:28N 35°36' E 139°46'0 0.0
2018-Feb-05 17:49N 35°36' E 139°46'0 0.0
2018-Feb-05 17:25N 35°36' E 139°46'0 0.0
2018-Feb-05 17:00N 35°36' E 139°46'1 2.8
2018-Feb-05 16:30N 35°35' E 139°48'13 9.0
2018-Feb-05 15:00N 35°22' E 139°45'611.1
2018-Feb-05 14:30N 35°16' E 139°46'611.8
2018-Feb-05 14:00N 35°10' E 139°47'9 8.6
2018-Feb-05 13:00N 35°02' E 139°43'1515.0
2018-Feb-05 12:00N 34°53' E 139°28'918.6
2018-Feb-05 11:30N 34°48' E 139°18'1018.8
2018-Feb-05 10:58N 34°40' E 139°11'1120.9
2018-Feb-05 10:27N 34°32' E 139°03'919.9
2018-Feb-05 09:59N 34°31' E 138°51'918.1
2018-Feb-05 09:29N 34°34' E 138°41'919.5
2018-Feb-05 09:00N 34°43' E 138°40'1020.2
2018-Feb-05 08:30N 34°53' E 138°38'918.2
2018-Feb-05 08:00N 35°01' E 138°33'2 3.9
2018-Feb-05 07:30N 35°02' E 138°31'1 1.1
2018-Feb-05 07:00N 35°02' E 138°31'0 0.0
2018-Feb-05 06:30N 35°02' E 138°31'0 0.0
2018-Feb-05 05:30N 35°02' E 138°31'0 0.0
2018-Feb-05 05:00N 35°02' E 138°31'0 0.0
2018-Feb-05 04:30N 35°02' E 138°31'0 0.0
2018-Feb-05 04:00N 35°02' E 138°31'0 0.0
2018-Feb-05 03:30N 35°02' E 138°31'0 0.0
2018-Feb-05 03:00N 35°02' E 138°31'0 0.0
2018-Feb-05 02:30N 35°02' E 138°31'0 0.0
2018-Feb-05 02:00N 35°02' E 138°31'0 0.0
2018-Feb-05 01:30N 35°02' E 138°31'0 0.0
2018-Feb-05 01:00N 35°02' E 138°31'0 0.0
2018-Feb-05 00:30N 35°02' E 138°31'0 0.0
2018-Feb-05 00:00N 35°02' E 138°31'0 0.0
2018-Feb-04 23:30N 35°02' E 138°31'0 0.0
2018-Feb-04 23:00N 35°02' E 138°31'0 0.0
2018-Feb-04 22:30N 35°02' E 138°31'0 0.0
2018-Feb-04 22:00N 35°02' E 138°31'0 0.0
2018-Feb-04 21:30N 35°02' E 138°31'0 0.0
2018-Feb-04 21:00N 35°02' E 138°31'0 0.0
2018-Feb-04 20:00N 35°02' E 138°31'0 0.0
2018-Feb-04 19:30N 35°02' E 138°31'0 0.0
2018-Feb-04 19:00N 35°02' E 138°31'0 0.0
2018-Feb-04 18:30N 35°02' E 138°31'0 0.0
2018-Feb-04 18:00N 35°02' E 138°31'0 0.0
2018-Feb-04 17:30N 35°02' E 138°31'1 0.6
2018-Feb-04 15:30N 35°02' E 138°32'3 5.2
2018-Feb-04 15:00N 34°59' E 138°33'713.6
2018-Feb-04 14:31N 34°53' E 138°31'815.1
2018-Feb-04 14:01N 34°45' E 138°29'917.2
2018-Feb-04 13:30N 34°37' E 138°27'815.2
2018-Feb-04 13:00N 34°30' E 138°24'714.5
2018-Feb-04 12:30N 34°27' E 138°15'1018.7
2018-Feb-04 11:59N 34°27' E 138°04'1019.2
2018-Feb-04 11:29N 34°27' E 137°52'4616.8
2018-Feb-04 08:43N 34°36' E 136°57'417.1
2018-Feb-04 08:27N 34°38' E 136°52'919.3
2018-Feb-04 08:00N 34°46' E 136°47'  

Dump ship's entire track history